Aérodrome :
LOGIN :

S'inscrire | Disclaimer

   EN    FR    IT 

 










Légende :    VFR   VFR Marginal   IFR   IFR Intensif   IFR Très Intensif
Visi : 
Plafond : 
>= 8 km
>= 3000ft
5 à 8 km
1000 à 3000 ft
1500m à 5 km
500 à 1000 ft
800 à 1500m
200 à 500 ft
< 800m
< 200 ft
Symboles :   Orages  Brouillard  Fortes neiges  Fortes précipitations  Vent > 20 kt
SIGMETs :   Divers  Orages  Givrage  Turbulence  Onde Orograph.  Cendres Volcan.






- Altitude de l'aérodrome : 297 ft
- Code IATA : ODB


LEBA - Córdoba

DERNIER METAR :
  • 211600Z 06004KT 4500 BR SCT020 BKN035 BKN045 13/12 Q1008

METARs EXPIRÉS :
  • 211530Z 08004KT 3000 BR SCT020 BKN035 BKN045 13/12 Q1008
  • 211500Z 07003KT 040V100 3000 -RA BR SCT010 BKN040 13/12 Q1008
  • 211430Z 07003KT 040V100 4000 -RA BR SCT010 BKN040 12/12 Q1008
  • 211400Z 06004KT 4000 RA BR SCT008 BKN040 12/12 Q1008
  • 211330Z VRB02KT 4000 -DZ BR SCT008 BKN040 12/12 Q1009
  • 211300Z 05004KT 360V090 4000 BR SCT008 BKN013 BKN018 13/12 Q1009

TAF TAF LEBA
Valide du 21 à 15h jusqu'au 22 à 00h UTC


211400Z 2115/2124 22005KT 9999 SCT010 BKN040
PROB40
TEMPO 2115/2124 4000 BR BKN010
PROB40
TEMPO 2115/2121 4000 SHRA SCT020TCU



MET'MAP, la Météo Aéronautique d'un coup d'oeil ! - Copyright ORBIFLY Décembre 2007 - Disclaimer

ORBIFLY MET'MAP TEAM :

Programmation & Développement : Alexandra Zaïnal
Conception & Développement : Baudouin d'Aumeries
Co-Programmation & Développement : Marc-Olivier Méhu
Soutien technique & logistique : Manuel Goepfert

Contact : metmap@orbifly.com




SOURCES & CREDITS :

   NOAA